createdAt,value
2019-04-29T00:01:22.885Z,96463.84
2019-04-29T00:03:51.000Z,96456.48
2019-04-29T00:06:18.275Z,96456.98
2019-04-29T00:08:45.572Z,96452.97
2019-04-29T00:11:12.843Z,96450.60
2019-04-29T00:13:40.126Z,96453.41
2019-04-29T00:16:07.409Z,96458.34
2019-04-29T00:18:34.447Z,96452.81
2019-04-29T00:21:01.481Z,96457.17
2019-04-29T00:23:28.524Z,96458.02
2019-04-29T00:25:55.555Z,96452.64
2019-04-29T00:28:22.680Z,96452.19
2019-04-29T00:30:49.721Z,96451.78
2019-04-29T00:33:17.068Z,96456.03
2019-04-29T00:35:44.426Z,96455.80
2019-04-29T00:38:11.647Z,96454.76
2019-04-29T00:40:38.677Z,96450.06
2019-04-29T00:43:05.946Z,96457.97
2019-04-29T00:45:33.001Z,96459.30
2019-04-29T00:48:00.267Z,96457.67
2019-04-29T00:50:27.313Z,96462.66
2019-04-29T00:52:54.593Z,96461.84
2019-04-29T00:55:21.890Z,96458.91
2019-04-29T00:57:49.177Z,96457.03
2019-04-29T01:00:16.219Z,96460.56
2019-04-29T01:02:43.249Z,96463.51
2019-04-29T01:05:10.539Z,96465.98
2019-04-29T01:07:37.816Z,96461.40
2019-04-29T01:10:05.107Z,96464.45
2019-04-29T01:12:32.135Z,96469.50
2019-04-29T01:14:59.176Z,96464.09
2019-04-29T01:17:26.208Z,96467.98
2019-04-29T01:19:54.223Z,96464.09
2019-04-29T01:22:21.247Z,96467.62
2019-04-29T01:24:48.299Z,96462.09
2019-04-29T01:27:15.327Z,96468.08
2019-04-29T01:29:42.642Z,96471.25
2019-04-29T01:32:09.910Z,96472.66
2019-04-29T01:34:36.950Z,96470.61
2019-04-29T01:37:04.223Z,96472.02
2019-04-29T01:39:31.268Z,96465.90
2019-04-29T01:41:58.298Z,96465.31
2019-04-29T01:44:25.349Z,96467.42
2019-04-29T01:46:52.628Z,96465.43
2019-04-29T01:49:19.890Z,96464.95
2019-04-29T01:51:46.935Z,96469.91
2019-04-29T01:54:13.964Z,96467.44
2019-04-29T01:56:41.013Z,96470.14
2019-04-29T01:59:08.045Z,96473.67
2019-04-29T02:01:35.096Z,96475.91
2019-04-29T02:04:02.128Z,96475.44
2019-04-29T02:06:29.172Z,96478.02
2019-04-29T02:08:56.205Z,96480.02
2019-04-29T02:11:23.488Z,96477.08
2019-04-29T02:13:50.522Z,96476.61
2019-04-29T02:16:17.571Z,96479.20
2019-04-29T02:18:44.606Z,96474.14
2019-04-29T02:21:11.645Z,96482.26
2019-04-29T02:23:39.045Z,96478.73
2019-04-29T02:26:06.083Z,96477.55
2019-04-29T02:28:33.123Z,96480.59
2019-04-29T02:31:00.499Z,96478.69
2019-04-29T02:33:27.529Z,96479.38
2019-04-29T02:35:54.893Z,96481.95
2019-04-29T02:38:21.927Z,96480.77
2019-04-29T02:40:48.969Z,96481.81
2019-04-29T02:43:15.996Z,96481.92
2019-04-29T02:45:43.043Z,96469.20
2019-04-29T02:48:10.337Z,96475.42
2019-04-29T02:50:37.390Z,96477.14
2019-04-29T02:53:04.414Z,96472.31
2019-04-29T02:55:31.787Z,96469.00
2019-04-29T02:57:58.821Z,96468.28
2019-04-29T03:00:25.868Z,96466.61
2019-04-29T03:02:52.908Z,96462.36
2019-04-29T03:05:19.947Z,96459.30
2019-04-29T03:07:47.344Z,96469.53
2019-04-29T03:10:14.792Z,96467.16
2019-04-29T03:12:41.839Z,96463.16
2019-04-29T03:15:09.196Z,96459.36
2019-04-29T03:17:36.239Z,96459.59
2019-04-29T03:20:03.275Z,96463.22
2019-04-29T03:22:30.322Z,96467.11
2019-04-29T03:24:57.359Z,96461.45
2019-04-29T03:27:24.410Z,96459.78
2019-04-29T03:29:51.438Z,96459.40
2019-04-29T03:32:18.486Z,96456.11
2019-04-29T03:34:45.783Z,96456.37
2019-04-29T03:37:12.837Z,96458.14
2019-04-29T03:39:39.872Z,96462.49
2019-04-29T03:42:07.602Z,96457.34
2019-04-29T03:44:35.922Z,96456.17
2019-04-29T03:47:02.979Z,96455.48
2019-04-29T03:49:30.027Z,96463.72
2019-04-29T03:51:57.077Z,96459.84
2019-04-29T03:54:24.422Z,96457.72
2019-04-29T03:56:51.533Z,96455.73
2019-04-29T03:59:19.558Z,96462.91
2019-04-29T04:01:46.619Z,96466.44
2019-04-29T04:04:13.941Z,96462.08
2019-04-29T04:06:41.298Z,96462.30
2019-04-29T04:09:08.582Z,96462.78
2019-04-29T04:11:35.869Z,96462.53
2019-04-29T04:14:03.162Z,96467.11
2019-04-29T04:16:30.213Z,96465.56
2019-04-29T04:18:57.562Z,96468.62
2019-04-29T04:21:24.919Z,96468.50
2019-04-29T04:23:51.983Z,96476.62
2019-04-29T04:26:19.258Z,96471.91
2019-04-29T04:28:46.308Z,96471.91
2019-04-29T04:31:13.649Z,96470.97
2019-04-29T04:33:40.698Z,96477.06
2019-04-29T04:36:07.984Z,96465.97
2019-04-29T04:38:35.047Z,96464.39
2019-04-29T04:41:02.438Z,96476.15
2019-04-29T04:43:29.716Z,96482.03
2019-04-29T04:45:56.760Z,96482.13
2019-04-29T04:48:24.086Z,96479.37
2019-04-29T04:50:51.437Z,96480.88
2019-04-29T04:53:18.490Z,96486.50
2019-04-29T04:55:45.847Z,96490.61
2019-04-29T04:58:13.201Z,96493.20
2019-04-29T05:00:40.550Z,96498.61
2019-04-29T05:03:07.602Z,96491.66
2019-04-29T05:05:34.651Z,96496.27
2019-04-29T05:08:01.705Z,96490.83
2019-04-29T05:10:28.747Z,96487.98
2019-04-29T05:12:56.102Z,96490.32
2019-04-29T05:15:23.137Z,96489.59
2019-04-29T05:17:53.058Z,96500.05
2019-04-29T05:20:18.938Z,96498.97
2019-04-29T05:22:50.275Z,96499.53
2019-04-29T05:25:17.312Z,96508.20
2019-04-29T05:27:44.362Z,96508.63
2019-04-29T05:30:11.637Z,96512.00
2019-04-29T05:32:38.685Z,96516.94
2019-04-29T05:35:05.979Z,96516.98
2019-04-29T05:37:33.018Z,96513.81
2019-04-29T05:40:00.382Z,96519.03
2019-04-29T05:42:27.418Z,96522.11
2019-04-29T05:44:54.469Z,96521.56
2019-04-29T05:47:21.510Z,96521.23
2019-04-29T05:49:48.881Z,96518.13
2019-04-29T05:52:15.927Z,96527.14
2019-04-29T05:54:42.979Z,96516.97
2019-04-29T05:57:10.268Z,96512.73
2019-04-29T05:59:37.322Z,96520.45
2019-04-29T06:02:04.634Z,96523.39
2019-04-29T06:04:31.692Z,96522.23
2019-04-29T06:06:58.732Z,96523.39
2019-04-29T06:09:26.091Z,96525.78
2019-04-29T06:11:53.130Z,96526.64
2019-04-29T06:14:22.155Z,96534.44
2019-04-29T06:16:52.552Z,96535.45
2019-04-29T06:19:18.473Z,96534.07
2019-04-29T06:21:45.512Z,96534.94
2019-04-29T06:24:12.800Z,96539.46
2019-04-29T06:26:40.129Z,96540.17
2019-04-29T06:29:07.185Z,96535.75
2019-04-29T06:31:39.774Z,96543.52
2019-04-29T06:34:07.138Z,96534.08
2019-04-29T06:36:34.465Z,96540.52
2019-04-29T06:39:01.826Z,96546.84
2019-04-29T06:41:30.420Z,96544.95
2019-04-29T06:44:00.669Z,96547.50
2019-04-29T06:46:26.205Z,96547.93
2019-04-29T06:48:53.493Z,96552.27
2019-04-29T06:51:20.620Z,96551.05
2019-04-29T06:59:22.577Z,96552.06
2019-04-29T07:01:49.613Z,96553.03
2019-04-29T07:04:16.666Z,96551.41
2019-04-29T07:06:56.802Z,96545.08
2019-04-29T07:09:12.731Z,96549.45
2019-04-29T07:11:40.074Z,96548.45
2019-04-29T07:14:07.393Z,96546.09
2019-04-29T07:16:34.755Z,96551.91
2019-04-29T07:19:02.114Z,96556.70
2019-04-29T07:21:29.158Z,96553.07
2019-04-29T07:23:56.195Z,96553.56
2019-04-29T07:26:23.248Z,96549.95
2019-04-29T07:28:53.317Z,96556.83
2019-04-29T07:31:19.049Z,96553.72
2019-04-29T07:33:48.212Z,96556.33
2019-04-29T07:36:18.728Z,96554.03
2019-04-29T07:38:46.523Z,96552.34
2019-04-29T07:41:14.277Z,96554.77
2019-04-29T07:43:43.050Z,96555.42
2019-04-29T07:46:10.570Z,96561.22
2019-04-29T07:48:41.847Z,96558.34
2019-04-29T07:51:06.694Z,96557.02
2019-04-29T07:53:38.764Z,96553.78
2019-04-29T07:56:06.364Z,96556.39
2019-04-29T07:58:31.918Z,96556.20
2019-04-29T08:00:58.970Z,96553.73
2019-04-29T08:03:26.005Z,96559.71
2019-04-29T08:05:53.053Z,96556.14
2019-04-29T08:08:21.218Z,96556.86
2019-04-29T08:10:56.076Z,96561.59
2019-04-29T08:13:17.892Z,96560.56
2019-04-29T08:15:45.297Z,96560.20
2019-04-29T08:18:16.268Z,96556.58
2019-04-29T08:20:41.840Z,96553.77
2019-04-29T08:23:09.108Z,96556.25
2019-04-29T08:25:36.406Z,96550.93
2019-04-29T08:28:03.452Z,96553.24
2019-04-29T08:30:30.511Z,96547.16
2019-04-29T08:32:57.546Z,96542.41
2019-04-29T08:35:24.595Z,96545.72
2019-04-29T08:37:51.637Z,96547.48
2019-04-29T08:40:18.680Z,96548.42
2019-04-29T08:42:46.926Z,96551.08
2019-04-29T08:45:15.710Z,96557.30
2019-04-29T08:47:43.065Z,96558.20
2019-04-29T08:50:11.172Z,96558.41
2019-04-29T08:52:38.492Z,96556.87
2019-04-29T08:55:05.858Z,96557.31
2019-04-29T09:00:04.993Z,96556.37
2019-04-29T09:02:35.046Z,96556.98
2019-04-29T09:05:01.133Z,96556.89
2019-04-29T09:07:28.182Z,96553.22
2019-04-29T09:09:56.136Z,96548.94
2019-04-29T09:12:29.019Z,96551.09
2019-04-29T09:14:52.801Z,96554.95
2019-04-29T09:17:20.883Z,96548.64
2019-04-29T09:19:48.344Z,96546.91
2019-04-29T09:22:15.613Z,96543.32
2019-04-29T09:24:43.516Z,96543.27
2019-04-29T09:27:12.041Z,96543.07
2019-04-29T09:29:39.371Z,96537.58
2019-04-29T09:32:06.720Z,96543.48
2019-04-29T09:34:34.731Z,96537.27
2019-04-29T09:37:01.774Z,96543.47
2019-04-29T09:39:42.438Z,96539.00
2019-04-29T09:41:58.998Z,96539.34
2019-04-29T09:44:26.368Z,96536.00
2019-04-29T09:46:53.721Z,96539.28
2019-04-29T09:49:20.766Z,96535.12
2019-04-29T09:51:48.076Z,96535.75
2019-04-29T09:54:16.245Z,96531.57
2019-04-29T09:56:44.351Z,96535.99
2019-04-29T09:59:11.630Z,96532.39
2019-04-29T10:01:38.920Z,96532.86
2019-04-29T10:04:05.961Z,96525.67
2019-04-29T10:06:33.280Z,96522.86
2019-04-29T10:09:00.334Z,96525.73
2019-04-29T10:11:29.322Z,96516.26
2019-04-29T10:13:56.380Z,96519.63
2019-04-29T10:16:23.829Z,96516.48
2019-04-29T10:18:50.888Z,96516.61
2019-04-29T10:21:21.880Z,96512.13
2019-04-29T10:23:46.923Z,96515.38
2019-04-29T10:26:13.959Z,96513.00
2019-04-29T10:28:41.015Z,96508.59
2019-04-29T10:31:08.056Z,96510.16
2019-04-29T10:33:35.415Z,96511.05
2019-04-29T10:36:02.787Z,96509.28
2019-04-29T10:38:30.006Z,96508.59
2019-04-29T10:41:00.580Z,96508.53
2019-04-29T10:43:26.284Z,96503.20
2019-04-29T10:45:53.323Z,96504.20
2019-04-29T10:48:20.365Z,96497.95
2019-04-29T10:50:52.054Z,96490.75
2019-04-29T10:53:18.043Z,96491.03
2019-04-29T10:55:45.607Z,96487.43
2019-04-29T10:58:14.003Z,96492.27
2019-04-29T11:00:41.046Z,96485.50
2019-04-29T11:03:08.100Z,96486.28
2019-04-29T11:05:35.205Z,96470.92
2019-04-29T11:08:04.272Z,96480.55
2019-04-29T11:10:31.888Z,96473.22
2019-04-29T11:12:59.238Z,96462.30
2019-04-29T11:15:30.633Z,96465.22
2019-04-29T11:17:59.339Z,96466.84
2019-04-29T11:20:24.844Z,96459.33
2019-04-29T11:22:52.369Z,96459.05
2019-04-29T11:25:19.709Z,96461.56
2019-04-29T11:27:47.074Z,96465.08
2019-04-29T11:30:14.415Z,96450.69
2019-04-29T11:32:41.774Z,96444.12
2019-04-29T11:35:08.820Z,96450.19
2019-04-29T11:37:36.193Z,96449.69
2019-04-29T11:40:03.239Z,96446.84
2019-04-29T11:42:31.873Z,96455.59
2019-04-29T11:45:01.890Z,96438.59
2019-04-29T11:47:28.468Z,96447.97
2019-04-29T11:49:55.522Z,96432.48
2019-04-29T11:52:23.630Z,96432.89
2019-04-29T11:54:51.664Z,96433.60
2019-04-29T11:57:18.712Z,96431.44
2019-04-29T11:59:45.764Z,96432.84
2019-04-29T12:02:12.797Z,96429.80
2019-04-29T12:04:42.148Z,96430.75
2019-04-29T12:07:08.898Z,96431.80
2019-04-29T12:09:35.952Z,96430.37
2019-04-29T12:12:02.988Z,96431.77
2019-04-29T12:14:33.797Z,96426.39
2019-04-29T12:16:59.120Z,96432.91
2019-04-29T12:19:26.172Z,96426.56
2019-04-29T12:21:53.478Z,96422.61
2019-04-29T12:24:20.526Z,96418.55
2019-04-29T12:26:47.571Z,96419.63
2019-04-29T12:29:18.369Z,96411.78
2019-04-29T12:31:44.877Z,96416.39
2019-04-29T12:34:13.223Z,96415.70
2019-04-29T12:36:54.629Z,96416.63
2019-04-29T12:39:09.695Z,96410.36
2019-04-29T12:41:48.192Z,96406.46
2019-04-29T12:44:05.475Z,96413.66
2019-04-29T12:46:32.866Z,96407.45
2019-04-29T12:49:03.517Z,96409.47
2019-04-29T12:51:28.987Z,96398.10
2019-04-29T12:53:56.017Z,96397.55
2019-04-29T12:56:25.961Z,96394.70
2019-04-29T12:58:55.136Z,96387.78
2019-04-29T13:01:20.547Z,96385.35
2019-04-29T13:03:47.933Z,96384.58
2019-04-29T13:06:14.992Z,96392.83
2019-04-29T13:08:42.340Z,96389.46
2019-04-29T13:11:09.714Z,96396.78
2019-04-29T13:13:36.751Z,96387.32
2019-04-29T13:16:04.097Z,96388.92
2019-04-29T13:18:31.137Z,96381.37
2019-04-29T13:21:09.477Z,96379.36
2019-04-29T13:23:34.682Z,96371.85
2019-04-29T13:25:57.845Z,96376.10
2019-04-29T13:28:30.253Z,96366.51
2019-04-29T13:30:56.943Z,96377.30
2019-04-29T13:33:23.469Z,96366.30
2019-04-29T13:35:50.822Z,96363.75
2019-04-29T13:38:17.869Z,96362.91
2019-04-29T13:40:45.996Z,96358.13
2019-04-29T13:43:13.314Z,96357.88
2019-04-29T13:45:40.374Z,96358.86
2019-04-29T13:48:09.058Z,96356.56
2019-04-29T13:50:39.815Z,96352.88
2019-04-29T13:53:05.331Z,96362.09
2019-04-29T13:55:47.954Z,96374.98
2019-04-29T13:58:01.435Z,96379.55
2019-04-29T14:00:28.777Z,96379.27
2019-04-29T14:02:59.322Z,96373.00
2019-04-29T14:05:24.920Z,96375.80
2019-04-29T14:07:52.710Z,96372.81
2019-04-29T14:10:20.707Z,96367.43
2019-04-29T14:12:51.129Z,96372.45
2019-04-29T14:15:16.798Z,96371.44
2019-04-29T14:17:44.918Z,96369.32
2019-04-29T14:20:15.756Z,96355.45
2019-04-29T14:22:41.024Z,96355.10
2019-04-29T14:25:08.371Z,96354.86
2019-04-29T14:27:35.748Z,96345.98
2019-04-29T14:30:06.847Z,96353.03
2019-04-29T14:32:37.909Z,96348.30
2019-04-29T14:35:02.053Z,96349.73
2019-04-29T14:37:29.654Z,96346.38
2019-04-29T14:39:57.023Z,96344.36
2019-04-29T14:42:25.642Z,96344.06
2019-04-29T14:44:53.099Z,96347.00
2019-04-29T14:47:20.402Z,96351.94
2019-04-29T14:49:47.766Z,96345.98
2019-04-29T14:52:15.076Z,96352.41
2019-04-29T14:54:43.606Z,96348.11
2019-04-29T14:57:10.952Z,96351.65
2019-04-29T14:59:38.227Z,96341.73
2019-04-29T15:04:40.910Z,96352.75
2019-04-29T15:07:08.398Z,96350.32
2019-04-29T15:09:46.583Z,96350.89
2019-04-29T15:12:04.717Z,96354.55
2019-04-29T15:14:32.341Z,96352.28
2019-04-29T15:16:59.576Z,96357.90
2019-04-29T15:19:27.075Z,96353.88
2019-04-29T15:21:54.341Z,96352.68
2019-04-29T15:24:21.812Z,96354.11
2019-04-29T15:26:49.807Z,96352.44
2019-04-29T15:29:17.235Z,96357.77
2019-04-29T15:31:47.183Z,96352.30
2019-04-29T15:34:14.583Z,96351.41
2019-04-29T15:36:42.126Z,96358.63
2019-04-29T15:39:11.622Z,96360.95
2019-04-29T15:41:38.861Z,96355.89
2019-04-29T15:44:08.130Z,96359.97
2019-04-29T15:46:46.383Z,96369.70
2019-04-29T15:49:03.552Z,96370.52
2019-04-29T15:51:30.891Z,96364.95
2019-04-29T15:53:58.186Z,96373.13
2019-04-29T15:56:28.692Z,96373.28
2019-04-29T15:58:54.232Z,96372.28
2019-04-29T16:01:27.293Z,96369.98
2019-04-29T16:03:54.854Z,96372.28
2019-04-29T16:06:21.384Z,96372.92
2019-04-29T16:08:48.238Z,96366.95
2019-04-29T16:11:15.271Z,96362.59
2019-04-29T16:13:47.750Z,96358.45
2019-04-29T16:16:11.404Z,96362.80
2019-04-29T16:18:38.783Z,96362.91
2019-04-29T16:21:05.812Z,96370.19
2019-04-29T16:23:38.655Z,96359.60
2019-04-29T16:26:02.361Z,96357.84
2019-04-29T16:28:31.564Z,96361.42
2019-04-29T16:30:58.138Z,96368.91
2019-04-29T16:33:25.187Z,96367.70
2019-04-29T16:35:52.219Z,96364.36
2019-04-29T16:38:20.768Z,96366.13
2019-04-29T16:40:48.766Z,96373.17
2019-04-29T16:43:16.201Z,96371.76
2019-04-29T16:45:44.219Z,96370.42
2019-04-29T16:48:13.681Z,96362.48
2019-04-29T16:50:41.028Z,96362.48
2019-04-29T16:53:08.385Z,96374.59
2019-04-29T16:55:42.898Z,96372.65
2019-04-29T16:58:07.697Z,96372.50
2019-04-29T17:00:33.499Z,96364.87
2019-04-29T17:03:00.530Z,96366.47
2019-04-29T17:05:27.584Z,96365.62
2019-04-29T17:07:54.611Z,96374.73
2019-04-29T17:10:21.663Z,96371.46
2019-04-29T17:15:37.698Z,96370.00
2019-04-29T17:18:05.099Z,96368.51
2019-04-29T17:20:32.434Z,96365.87
2019-04-29T17:22:59.781Z,96370.93
2019-04-29T17:25:26.827Z,96364.71
2019-04-29T17:27:54.211Z,96367.28
2019-04-29T17:30:21.530Z,96368.05
2019-04-29T17:32:50.018Z,96363.14
2019-04-29T17:35:21.460Z,96367.00
2019-04-29T17:37:46.639Z,96363.88
2019-04-29T17:40:19.572Z,96366.96
2019-04-29T17:43:00.792Z,96367.78
2019-04-29T17:45:32.596Z,96367.59
2019-04-29T17:47:59.785Z,96367.40
2019-04-29T17:50:30.719Z,96368.03
2019-04-29T17:53:09.139Z,96367.20
2019-04-29T17:55:40.238Z,96371.74
2019-04-29T17:58:07.303Z,96372.33
2019-04-29T18:03:12.504Z,96370.83
2019-04-29T18:05:54.440Z,96377.44
2019-04-29T18:08:15.344Z,96368.27
2019-04-29T18:10:42.393Z,96370.34
2019-04-29T18:13:18.775Z,96367.06
2019-04-29T18:18:17.674Z,96367.34
2019-04-29T18:20:47.178Z,96367.77
2019-04-29T18:23:18.791Z,96367.24
2019-04-29T18:25:44.842Z,96371.14
2019-04-29T18:28:13.896Z,96367.73
2019-04-29T18:30:41.216Z,96368.16
2019-04-29T18:33:08.981Z,96374.47
2019-04-29T18:43:23.067Z,96373.73
2019-04-29T18:48:22.014Z,96374.59
2019-04-29T18:50:49.187Z,96374.45
2019-04-29T18:53:22.566Z,96374.25
2019-04-29T18:58:28.765Z,96377.30
2019-04-29T19:00:56.477Z,96381.23
2019-04-29T19:03:25.318Z,96375.89
2019-04-29T19:08:32.068Z,96375.83
2019-04-29T19:13:37.815Z,96385.75
2019-04-29T19:16:12.069Z,96381.97
2019-04-29T19:18:38.924Z,96381.63
2019-04-29T19:21:10.496Z,96382.78
2019-04-29T19:23:38.651Z,96379.03
2019-04-29T19:26:05.928Z,96381.77
2019-04-29T19:28:45.429Z,96379.98
2019-04-29T19:33:50.571Z,96388.89
2019-04-29T19:36:21.491Z,96382.19
2019-04-29T19:38:47.393Z,96387.53
2019-04-29T19:46:36.751Z,96383.09
2019-04-29T19:49:07.419Z,96384.19
2019-04-29T19:51:32.111Z,96382.89
2019-04-29T19:54:09.245Z,96380.16
2019-04-29T19:56:40.956Z,96382.95
2019-04-29T19:59:13.750Z,96375.97
2019-04-29T20:01:49.666Z,96378.57
2019-04-29T20:04:20.914Z,96378.30
2019-04-29T20:06:48.210Z,96374.39
2019-04-29T20:09:21.389Z,96368.58
2019-04-29T20:11:48.394Z,96373.29
2019-04-29T20:14:20.693Z,96362.27
2019-04-29T20:19:34.231Z,96358.94
2019-04-29T20:22:05.557Z,96359.56
2019-04-29T20:24:30.694Z,96352.38
2019-04-29T20:27:00.192Z,96359.84
2019-04-29T20:29:33.801Z,96354.84
2019-04-29T20:34:46.080Z,96352.63
2019-04-29T20:37:16.213Z,96343.05
2019-04-29T20:39:45.433Z,96341.95
2019-04-29T20:44:55.219Z,96335.26
2019-04-29T20:47:37.282Z,96331.70
2019-04-29T20:50:08.977Z,96333.81
2019-04-29T20:52:36.692Z,96330.68
2019-04-29T20:55:06.507Z,96326.59
2019-04-29T20:57:37.534Z,96329.23
2019-04-29T21:00:11.901Z,96323.56
2019-04-29T21:02:41.579Z,96323.64
2019-04-29T21:05:23.319Z,96331.64
2019-04-29T21:10:24.218Z,96319.89
2019-04-29T21:12:51.284Z,96315.52
2019-04-29T21:15:36.183Z,96310.17
2019-04-29T21:18:10.435Z,96317.63
2019-04-29T21:20:39.988Z,96314.83
2019-04-29T21:23:10.421Z,96319.95
2019-04-29T21:25:38.482Z,96325.63
2019-04-29T21:28:05.757Z,96328.08
2019-04-29T21:30:42.274Z,96312.63
2019-04-29T21:35:37.959Z,96320.28
2019-04-29T21:38:05.204Z,96320.62
2019-04-29T21:40:35.067Z,96314.99
2019-04-29T21:43:08.103Z,96319.66
2019-04-29T21:45:48.364Z,96319.66
2019-04-29T21:48:16.744Z,96320.28
2019-04-29T21:50:44.935Z,96319.27
2019-04-29T21:53:15.085Z,96311.95
2019-04-29T21:55:45.778Z,96308.53
2019-04-29T21:58:17.122Z,96307.09
2019-04-29T22:00:48.673Z,96305.30
2019-04-29T22:03:26.509Z,96311.33
2019-04-29T22:08:45.116Z,96311.47
2019-04-29T22:11:19.646Z,96306.47
2019-04-29T22:13:46.709Z,96310.37
2019-04-29T22:16:18.254Z,96304.69
2019-04-29T22:18:51.768Z,96310.84
2019-04-29T22:21:25.912Z,96321.24
2019-04-29T22:23:52.841Z,96314.94
2019-04-29T22:26:23.418Z,96316.72
2019-04-29T22:31:26.825Z,96320.00
2019-04-29T22:36:43.356Z,96311.43
2019-04-29T22:39:10.713Z,96304.93
2019-04-29T22:41:37.752Z,96300.36
2019-04-29T22:44:04.978Z,96301.85
2019-04-29T22:46:32.017Z,96297.13
2019-04-29T22:48:59.070Z,96305.41
2019-04-29T22:51:26.462Z,96304.93
2019-04-29T22:53:55.688Z,96297.95
2019-04-29T22:56:22.911Z,96294.20
2019-04-29T22:58:50.289Z,96290.30
2019-04-29T23:01:17.768Z,96296.12
2019-04-29T23:03:45.148Z,96304.87
2019-04-29T23:06:15.721Z,96294.34
2019-04-29T23:08:44.799Z,96295.30
2019-04-29T23:11:12.059Z,96297.75
2019-04-29T23:13:39.101Z,96299.34
2019-04-29T23:16:06.159Z,96298.86
2019-04-29T23:18:41.619Z,96295.49
2019-04-29T23:21:03.934Z,96285.23
2019-04-29T23:23:33.752Z,96286.25
2019-04-29T23:26:04.192Z,96283.37
2019-04-29T23:28:28.811Z,96283.19
2019-04-29T23:30:56.065Z,96279.80
2019-04-29T23:33:24.550Z,96276.21
2019-04-29T23:35:52.090Z,96271.83
2019-04-29T23:38:19.365Z,96267.43
2019-04-29T23:40:49.746Z,96270.84
2019-04-29T23:43:15.797Z,96268.73
2019-04-29T23:45:42.806Z,96271.67
2019-04-29T23:48:10.089Z,96270.03
2019-04-29T23:50:37.142Z,96269.06
2019-04-29T23:53:05.786Z,96269.41
2019-04-29T23:55:33.197Z,96265.19
2019-04-29T23:58:03.729Z,96258.25
